Terminal Aerodrome Forecast
Issued by NWS Sioux Falls, SD

Home | Current Version | Previous Version | Graphics & Text | Print | Product List | Glossary Off
Versions: 1 2 3 4 5 6 7 8 9 10 11 12 13 14 15 16 17 18 19 20 21 22 23 24 25 26 27 28 29 30 31 32 33 34 35 36 37 38 39 40 41 42 43 44

126
FTUS43 KFSD 161231 AAA
TAFSUX
TAF AMD
KSUX 161231Z 1613/1712 12007KT 5SM SHRA VCTS OVC040CB
      TEMPO 1613/1614 2SM +TSRA SCT005 OVC025CB
     FM161400 13008KT 5SM SHRA VCTS OVC045CB
     FM161700 18008KT P6SM VCTS OVC080CB
     FM162000 25007KT P6SM VCSH BKN080
     FM162200 30008KT P6SM BKN090
     FM170800 31010KT P6SM BKN025=

USA.gov is the U.S. government's official web portal to all federal, state and local government web resources and services.